sensor_id;sensor_type;location;lat;lon;timestamp;pressure;altitude;pressure_sealevel;temperature;humidity
74268;BME280;62638;51.362;12.472;2022-08-24T00:01:05;100585.38;;;14.14;97.91
74268;BME280;62638;51.362;12.472;2022-08-24T00:03:31;100590.19;;;14.02;98.04
74268;BME280;62638;51.362;12.472;2022-08-24T00:05:57;100592.78;;;13.94;97.85
74268;BME280;62638;51.362;12.472;2022-08-24T00:08:22;100595.94;;;13.89;97.81
74268;BME280;62638;51.362;12.472;2022-08-24T00:10:48;100591.13;;;13.93;98.22
74268;BME280;62638;51.362;12.472;2022-08-24T00:13:13;100588.56;;;13.91;98.60
74268;BME280;62638;51.362;12.472;2022-08-24T00:15:39;100591.84;;;14.03;98.79
74268;BME280;62638;51.362;12.472;2022-08-24T00:18:05;100594.34;;;13.96;98.77
74268;BME280;62638;51.362;12.472;2022-08-24T00:20:31;100592.44;;;13.89;98.63
74268;BME280;62638;51.362;12.472;2022-08-24T00:22:57;100588.84;;;13.80;98.50
74268;BME280;62638;51.362;12.472;2022-08-24T00:25:23;100584.06;;;13.74;97.92
74268;BME280;62638;51.362;12.472;2022-08-24T00:27:49;100582.84;;;13.69;98.09
74268;BME280;62638;51.362;12.472;2022-08-24T00:30:16;100583.38;;;13.72;98.43
74268;BME280;62638;51.362;12.472;2022-08-24T00:32:43;100587.59;;;13.75;99.17
74268;BME280;62638;51.362;12.472;2022-08-24T00:35:11;100584.16;;;13.64;98.87
74268;BME280;62638;51.362;12.472;2022-08-24T00:37:36;100582.78;;;13.60;98.62
74268;BME280;62638;51.362;12.472;2022-08-24T00:40:09;100591.69;;;13.61;97.93
74268;BME280;62638;51.362;12.472;2022-08-24T00:42:36;100587.31;;;13.60;97.58
74268;BME280;62638;51.362;12.472;2022-08-24T00:45:04;100586.38;;;13.51;97.77
74268;BME280;62638;51.362;12.472;2022-08-24T00:47:32;100587.63;;;13.57;98.26
74268;BME280;62638;51.362;12.472;2022-08-24T00:50:03;100595.44;;;13.50;98.24
74268;BME280;62638;51.362;12.472;2022-08-24T00:52:37;100595.44;;;13.50;98.25
74268;BME280;62638;51.362;12.472;2022-08-24T00:55:18;100596.34;;;13.77;98.01
74268;BME280;62638;51.362;12.472;2022-08-24T00:57:47;100597.84;;;13.71;97.83
74268;BME280;62638;51.362;12.472;2022-08-24T01:00:23;100601.09;;;13.57;97.43
74268;BME280;62638;51.362;12.472;2022-08-24T01:02:52;100604.38;;;13.51;98.00
74268;BME280;62638;51.362;12.472;2022-08-24T01:05:18;100602.53;;;13.51;98.08
74268;BME280;62638;51.362;12.472;2022-08-24T01:07:44;100606.00;;;13.61;98.43
74268;BME280;62638;51.362;12.472;2022-08-24T01:10:17;100600.47;;;13.63;98.78
74268;BME280;62638;51.362;12.472;2022-08-24T01:12:47;100599.38;;;13.56;98.99
74268;BME280;62638;51.362;12.472;2022-08-24T01:15:13;100600.16;;;13.48;98.86
74268;BME280;62638;51.362;12.472;2022-08-24T01:17:39;100605.16;;;13.43;99.09
74268;BME280;62638;51.362;12.472;2022-08-24T01:20:23;100604.09;;;13.36;99.36
74268;BME280;62638;51.362;12.472;2022-08-24T01:23:28;100593.72;;;13.24;99.00
74268;BME280;62638;51.362;12.472;2022-08-24T01:25:59;100594.00;;;13.21;99.33
74268;BME280;62638;51.362;12.472;2022-08-24T01:28:25;100592.47;;;13.18;98.80
74268;BME280;62638;51.362;12.472;2022-08-24T01:30:50;100594.91;;;13.29;99.63
74268;BME280;62638;51.362;12.472;2022-08-24T01:33:28;100599.84;;;13.34;99.77
74268;BME280;62638;51.362;12.472;2022-08-24T01:35:59;100593.38;;;13.27;99.79
74268;BME280;62638;51.362;12.472;2022-08-24T01:38:25;100593.06;;;13.30;100.00
74268;BME280;62638;51.362;12.472;2022-08-24T01:40:53;100588.53;;;13.30;100.00
74268;BME280;62638;51.362;12.472;2022-08-24T01:43:21;100592.84;;;13.23;100.00
74268;BME280;62638;51.362;12.472;2022-08-24T01:45:48;100595.09;;;13.28;100.00
74268;BME280;62638;51.362;12.472;2022-08-24T01:48:13;100598.47;;;13.30;100.00
74268;BME280;62638;51.362;12.472;2022-08-24T01:50:39;100597.13;;;13.16;99.99
74268;BME280;62638;51.362;12.472;2022-08-24T01:53:05;100606.63;;;13.20;99.49
74268;BME280;62638;51.362;12.472;2022-08-24T01:55:31;100597.97;;;13.16;98.84
74268;BME280;62638;51.362;12.472;2022-08-24T01:57:57;100603.34;;;13.16;99.00
74268;BME280;62638;51.362;12.472;2022-08-24T02:00:23;100602.91;;;13.21;99.45
74268;BME280;62638;51.362;12.472;2022-08-24T02:02:48;100597.00;;;13.17;99.92
74268;BME280;62638;51.362;12.472;2022-08-24T02:05:14;100598.22;;;13.23;99.74
74268;BME280;62638;51.362;12.472;2022-08-24T02:07:40;100597.63;;;13.11;99.59
74268;BME280;62638;51.362;12.472;2022-08-24T02:10:09;100601.31;;;13.10;99.29
74268;BME280;62638;51.362;12.472;2022-08-24T02:12:37;100589.56;;;13.11;99.33
74268;BME280;62638;51.362;12.472;2022-08-24T02:15:04;100593.91;;;13.12;99.07
74268;BME280;62638;51.362;12.472;2022-08-24T02:17:32;100599.53;;;13.19;98.90
74268;BME280;62638;51.362;12.472;2022-08-24T02:19:57;100595.53;;;13.23;99.34
74268;BME280;62638;51.362;12.472;2022-08-24T02:22:22;100595.53;;;13.23;98.92
74268;BME280;62638;51.362;12.472;2022-08-24T02:24:47;100595.69;;;13.22;98.85
74268;BME280;62638;51.362;12.472;2022-08-24T02:27:13;100591.16;;;13.22;98.56
74268;BME280;62638;51.362;12.472;2022-08-24T02:29:41;100589.56;;;13.11;99.24
74268;BME280;62638;51.362;12.472;2022-08-24T02:32:06;100590.72;;;12.99;98.98
74268;BME280;62638;51.362;12.472;2022-08-24T02:34:31;100585.69;;;12.87;99.14
74268;BME280;62638;51.362;12.472;2022-08-24T02:36:56;100597.28;;;12.87;98.87
74268;BME280;62638;51.362;12.472;2022-08-24T02:39:22;100599.16;;;13.04;99.23
74268;BME280;62638;51.362;12.472;2022-08-24T02:41:47;100605.50;;;13.13;99.18
74268;BME280;62638;51.362;12.472;2022-08-24T02:44:13;100604.53;;;13.04;98.79
74268;BME280;62638;51.362;12.472;2022-08-24T02:46:38;100604.91;;;12.92;98.99
74268;BME280;62638;51.362;12.472;2022-08-24T02:49:03;100607.50;;;12.84;99.06
74268;BME280;62638;51.362;12.472;2022-08-24T02:51:31;100603.28;;;12.81;99.23
74268;BME280;62638;51.362;12.472;2022-08-24T02:53:58;100603.28;;;12.81;99.35
74268;BME280;62638;51.362;12.472;2022-08-24T02:56:25;100609.78;;;12.79;99.46
74268;BME280;62638;51.362;12.472;2022-08-24T02:58:51;100604.28;;;12.80;99.29
74268;BME280;62638;51.362;12.472;2022-08-24T03:01:17;100614.28;;;12.88;99.81
74268;BME280;62638;51.362;12.472;2022-08-24T03:03:43;100610.28;;;12.92;99.81
74268;BME280;62638;51.362;12.472;2022-08-24T03:06:09;100609.28;;;12.93;99.43
74268;BME280;62638;51.362;12.472;2022-08-24T03:08:35;100608.34;;;12.84;99.80
74268;BME280;62638;51.362;12.472;2022-08-24T03:11:01;100619.97;;;12.85;100.00
74268;BME280;62638;51.362;12.472;2022-08-24T03:13:27;100609.78;;;12.79;100.00
74268;BME280;62638;51.362;12.472;2022-08-24T03:15:54;100612.50;;;12.69;100.00
74268;BME280;62638;51.362;12.472;2022-08-24T03:18:20;100615.28;;;12.59;100.00
74268;BME280;62638;51.362;12.472;2022-08-24T03:20:46;100613.88;;;12.55;99.93
74268;BME280;62638;51.362;12.472;2022-08-24T03:23:13;100623.19;;;12.51;99.74
74268;BME280;62638;51.362;12.472;2022-08-24T03:25:38;100618.13;;;12.48;99.85
74268;BME280;62638;51.362;12.472;2022-08-24T03:28:04;100618.97;;;12.49;99.87
74268;BME280;62638;51.362;12.472;2022-08-24T03:30:29;100617.81;;;12.51;99.77
74268;BME280;62638;51.362;12.472;2022-08-24T03:32:54;100619.78;;;12.59;100.00
74268;BME280;62638;51.362;12.472;2022-08-24T03:35:20;100617.66;;;12.62;100.00
74268;BME280;62638;51.362;12.472;2022-08-24T03:37:47;100618.09;;;12.58;100.00
74268;BME280;62638;51.362;12.472;2022-08-24T03:40:13;100620.06;;;12.56;100.00
74268;BME280;62638;51.362;12.472;2022-08-24T03:42:38;100623.81;;;12.45;100.00
74268;BME280;62638;51.362;12.472;2022-08-24T03:45:04;100612.63;;;12.50;100.00
74268;BME280;62638;51.362;12.472;2022-08-24T03:47:30;100612.50;;;12.42;100.00
74268;BME280;62638;51.362;12.472;2022-08-24T03:49:55;100625.63;;;12.45;100.00
74268;BME280;62638;51.362;12.472;2022-08-24T03:52:21;100619.97;;;12.48;100.00
74268;BME280;62638;51.362;12.472;2022-08-24T03:54:47;100625.19;;;12.49;99.84
74268;BME280;62638;51.362;12.472;2022-08-24T03:57:12;100628.19;;;12.73;99.53
74268;BME280;62638;51.362;12.472;2022-08-24T03:59:38;100636.66;;;12.79;99.50
74268;BME280;62638;51.362;12.472;2022-08-24T04:02:03;100624.56;;;12.65;99.59
74268;BME280;62638;51.362;12.472;2022-08-24T04:04:29;100637.75;;;12.58;100.00
74268;BME280;62638;51.362;12.472;2022-08-24T04:06:56;100644.31;;;12.73;99.79
74268;BME280;62638;51.362;12.472;2022-08-24T04:09:22;100636.94;;;12.85;99.71
74268;BME280;62638;51.362;12.472;2022-08-24T04:11:47;100629.84;;;12.84;99.88
74268;BME280;62638;51.362;12.472;2022-08-24T04:14:14;100640.91;;;12.81;100.00
74268;BME280;62638;51.362;12.472;2022-08-24T04:16:40;100639.03;;;12.82;99.89
74268;BME280;62638;51.362;12.472;2022-08-24T04:19:06;100641.50;;;12.75;100.00
74268;BME280;62638;51.362;12.472;2022-08-24T04:21:34;100641.91;;;12.80;99.95
74268;BME280;62638;51.362;12.472;2022-08-24T04:24:01;100643.34;;;12.74;99.77
74268;BME280;62638;51.362;12.472;2022-08-24T04:26:29;100650.41;;;12.76;99.74
74268;BME280;62638;51.362;12.472;2022-08-24T04:28:55;100654.97;;;12.65;99.27
74268;BME280;62638;51.362;12.472;2022-08-24T04:31:20;100646.50;;;12.60;99.13
74268;BME280;62638;51.362;12.472;2022-08-24T04:33:47;100651.03;;;12.60;99.55
74268;BME280;62638;51.362;12.472;2022-08-24T04:36:18;100660.78;;;12.61;99.39
74268;BME280;62638;51.362;12.472;2022-08-24T04:38:43;100655.97;;;12.64;99.28
74268;BME280;62638;51.362;12.472;2022-08-24T04:41:10;100660.88;;;12.69;99.20
74268;BME280;62638;51.362;12.472;2022-08-24T04:43:40;100663.66;;;12.87;99.68
74268;BME280;62638;51.362;12.472;2022-08-24T04:46:11;100663.19;;;12.91;99.53
74268;BME280;62638;51.362;12.472;2022-08-24T04:48:39;100668.41;;;13.02;99.62
74268;BME280;62638;51.362;12.472;2022-08-24T04:51:07;100670.69;;;13.25;99.29
74268;BME280;62638;51.362;12.472;2022-08-24T04:53:34;100676.97;;;13.60;98.56
74268;BME280;62638;51.362;12.472;2022-08-24T04:55:59;100673.50;;;13.86;97.69
74268;BME280;62638;51.362;12.472;2022-08-24T04:58:26;100680.72;;;14.03;96.97
74268;BME280;62638;51.362;12.472;2022-08-24T05:00:52;100686.31;;;14.27;96.62
74268;BME280;62638;51.362;12.472;2022-08-24T05:03:19;100679.28;;;14.52;96.41
74268;BME280;62638;51.362;12.472;2022-08-24T05:05:47;100682.97;;;14.77;95.64
74268;BME280;62638;51.362;12.472;2022-08-24T05:08:13;100679.72;;;14.99;95.06
74268;BME280;62638;51.362;12.472;2022-08-24T05:10:43;100680.81;;;15.22;95.48
74268;BME280;62638;51.362;12.472;2022-08-24T05:13:09;100682.72;;;15.46;94.89
74268;BME280;62638;51.362;12.472;2022-08-24T05:15:39;100673.53;;;15.65;94.03
74268;BME280;62638;51.362;12.472;2022-08-24T05:18:05;100675.91;;;15.76;93.63
74268;BME280;62638;51.362;12.472;2022-08-24T05:20:32;100684.34;;;15.89;93.14
74268;BME280;62638;51.362;12.472;2022-08-24T05:22:57;100692.31;;;16.15;92.54
74268;BME280;62638;51.362;12.472;2022-08-24T05:25:22;100696.34;;;16.27;90.92
74268;BME280;62638;51.362;12.472;2022-08-24T05:27:48;100690.25;;;16.49;90.64
74268;BME280;62638;51.362;12.472;2022-08-24T05:30:13;100692.13;;;16.65;89.89
74268;BME280;62638;51.362;12.472;2022-08-24T05:32:39;100693.13;;;16.72;89.36
74268;BME280;62638;51.362;12.472;2022-08-24T05:35:06;100703.25;;;16.86;89.64
74268;BME280;62638;51.362;12.472;2022-08-24T05:37:36;100692.41;;;16.86;89.28
74268;BME280;62638;51.362;12.472;2022-08-24T05:40:04;100704.38;;;17.00;89.28
74268;BME280;62638;51.362;12.472;2022-08-24T05:42:30;100693.66;;;17.14;90.00
74268;BME280;62638;51.362;12.472;2022-08-24T05:44:55;100695.34;;;17.15;90.12
74268;BME280;62638;51.362;12.472;2022-08-24T05:47:21;100699.38;;;17.19;90.86
74268;BME280;62638;51.362;12.472;2022-08-24T05:49:47;100700.03;;;17.30;90.13
74268;BME280;62638;51.362;12.472;2022-08-24T05:52:12;100706.25;;;17.38;90.11
74268;BME280;62638;51.362;12.472;2022-08-24T05:54:37;100704.69;;;17.44;89.21
74268;BME280;62638;51.362;12.472;2022-08-24T05:57:03;100706.53;;;17.51;89.69
74268;BME280;62638;51.362;12.472;2022-08-24T05:59:29;100713.78;;;17.59;89.06
74268;BME280;62638;51.362;12.472;2022-08-24T06:01:55;100710.16;;;17.97;88.28
74268;BME280;62638;51.362;12.472;2022-08-24T06:04:20;100716.69;;;18.26;87.99
74268;BME280;62638;51.362;12.472;2022-08-24T06:06:46;100718.22;;;18.43;85.87
74268;BME280;62638;51.362;12.472;2022-08-24T06:09:12;100720.94;;;18.66;84.44
74268;BME280;62638;51.362;12.472;2022-08-24T06:11:39;100710.09;;;18.95;85.68
74268;BME280;62638;51.362;12.472;2022-08-24T06:14:10;100716.28;;;19.03;82.90
74268;BME280;62638;51.362;12.472;2022-08-24T06:16:40;100711.44;;;19.28;84.27
74268;BME280;62638;51.362;12.472;2022-08-24T06:19:07;100717.78;;;19.21;82.69
74268;BME280;62638;51.362;12.472;2022-08-24T06:21:34;100707.03;;;19.27;82.68
74268;BME280;62638;51.362;12.472;2022-08-24T06:23:59;100722.47;;;19.41;82.45
74268;BME280;62638;51.362;12.472;2022-08-24T06:26:27;100720.06;;;19.68;83.58
74268;BME280;62638;51.362;12.472;2022-08-24T06:29:11;100721.53;;;19.85;81.88
74268;BME280;62638;51.362;12.472;2022-08-24T06:31:39;100720.72;;;19.84;81.02
74268;BME280;62638;51.362;12.472;2022-08-24T06:34:06;100722.00;;;20.10;80.76
74268;BME280;62638;51.362;12.472;2022-08-24T06:36:32;100725.50;;;20.04;80.59
74268;BME280;62638;51.362;12.472;2022-08-24T06:38:57;100720.13;;;20.10;80.42
74268;BME280;62638;51.362;12.472;2022-08-24T06:41:23;100721.44;;;20.35;80.17
74268;BME280;62638;51.362;12.472;2022-08-24T06:43:49;100723.66;;;20.11;79.71
74268;BME280;62638;51.362;12.472;2022-08-24T06:46:15;100723.53;;;19.98;79.65
74268;BME280;62638;51.362;12.472;2022-08-24T06:48:40;100721.78;;;20.11;79.58
74268;BME280;62638;51.362;12.472;2022-08-24T06:51:11;100724.00;;;20.22;80.31
74268;BME280;62638;51.362;12.472;2022-08-24T06:53:38;100727.59;;;20.23;79.26
74268;BME280;62638;51.362;12.472;2022-08-24T06:56:04;100726.16;;;20.48;79.84
74268;BME280;62638;51.362;12.472;2022-08-24T06:58:29;100732.53;;;20.34;77.64
74268;BME280;62638;51.362;12.472;2022-08-24T07:00:56;100728.75;;;20.56;79.85
74268;BME280;62638;51.362;12.472;2022-08-24T07:03:23;100733.75;;;20.53;77.22
74268;BME280;62638;51.362;12.472;2022-08-24T07:05:50;100743.47;;;20.68;77.59
74268;BME280;62638;51.362;12.472;2022-08-24T07:08:16;100742.94;;;20.52;76.77
74268;BME280;62638;51.362;12.472;2022-08-24T07:10:41;100744.94;;;20.43;78.48
74268;BME280;62638;51.362;12.472;2022-08-24T07:13:07;100742.69;;;21.02;77.00
74268;BME280;62638;51.362;12.472;2022-08-24T07:15:32;100745.19;;;21.32;74.24
74268;BME280;62638;51.362;12.472;2022-08-24T07:17:59;100737.91;;;21.45;74.26
74268;BME280;62638;51.362;12.472;2022-08-24T07:20:25;100728.69;;;21.46;73.70
74268;BME280;62638;51.362;12.472;2022-08-24T07:22:53;100745.63;;;21.83;74.49
74268;BME280;62638;51.362;12.472;2022-08-24T07:25:18;100748.38;;;21.89;72.43
74268;BME280;62638;51.362;12.472;2022-08-24T07:27:43;100743.72;;;21.77;74.67
74268;BME280;62638;51.362;12.472;2022-08-24T07:30:09;100749.50;;;22.14;72.26
74268;BME280;62638;51.362;12.472;2022-08-24T07:32:34;100757.94;;;22.39;72.48
74268;BME280;62638;51.362;12.472;2022-08-24T07:35:00;100750.81;;;22.58;70.89
74268;BME280;62638;51.362;12.472;2022-08-24T07:37:25;100749.97;;;22.64;69.28
74268;BME280;62638;51.362;12.472;2022-08-24T07:39:50;100754.63;;;22.70;70.18
74268;BME280;62638;51.362;12.472;2022-08-24T07:42:16;100748.72;;;22.60;69.44
74268;BME280;62638;51.362;12.472;2022-08-24T07:44:41;100758.81;;;22.59;72.82
74268;BME280;62638;51.362;12.472;2022-08-24T07:47:06;100762.78;;;22.63;71.45
74268;BME280;62638;51.362;12.472;2022-08-24T07:49:32;100757.56;;;22.75;69.73
74268;BME280;62638;51.362;12.472;2022-08-24T07:51:57;100753.50;;;23.24;69.30
74268;BME280;62638;51.362;12.472;2022-08-24T07:54:22;100757.72;;;23.20;67.14
74268;BME280;62638;51.362;12.472;2022-08-24T07:56:47;100748.34;;;23.60;68.43
74268;BME280;62638;51.362;12.472;2022-08-24T07:59:14;100750.50;;;23.51;66.75
74268;BME280;62638;51.362;12.472;2022-08-24T08:01:40;100748.94;;;23.69;65.86
74268;BME280;62638;51.362;12.472;2022-08-24T08:04:06;100758.25;;;23.61;66.11
74268;BME280;62638;51.362;12.472;2022-08-24T08:06:31;100751.03;;;23.73;65.73
74268;BME280;62638;51.362;12.472;2022-08-24T08:08:57;100753.75;;;23.80;65.15
74268;BME280;62638;51.362;12.472;2022-08-24T08:11:22;100756.78;;;23.52;66.93
74268;BME280;62638;51.362;12.472;2022-08-24T08:13:47;100764.34;;;23.57;65.71
74268;BME280;62638;51.362;12.472;2022-08-24T08:16:13;100760.69;;;23.12;67.15
74268;BME280;62638;51.362;12.472;2022-08-24T08:18:39;100762.81;;;22.90;67.25
74268;BME280;62638;51.362;12.472;2022-08-24T08:21:05;100768.16;;;23.56;66.11
74268;BME280;62638;51.362;12.472;2022-08-24T08:23:50;100762.41;;;24.15;67.81
74268;BME280;62638;51.362;12.472;2022-08-24T08:26:34;100757.94;;;24.52;66.30
74268;BME280;62638;51.362;12.472;2022-08-24T08:28:59;100759.88;;;23.75;64.43
74268;BME280;62638;51.362;12.472;2022-08-24T08:31:26;100758.72;;;23.96;63.51
74268;BME280;62638;51.362;12.472;2022-08-24T08:33:52;100760.53;;;24.15;63.58
74268;BME280;62638;51.362;12.472;2022-08-24T08:36:17;100758.19;;;24.12;63.03
74268;BME280;62638;51.362;12.472;2022-08-24T08:38:45;100768.19;;;23.42;64.53
74268;BME280;62638;51.362;12.472;2022-08-24T08:43:53;100774.72;;;24.62;64.80
74268;BME280;62638;51.362;12.472;2022-08-24T08:49:33;100757.16;;;24.69;60.85
74268;BME280;62638;51.362;12.472;2022-08-24T08:57:50;100766.03;;;24.40;63.91
74268;BME280;62638;51.362;12.472;2022-08-24T09:00:24;100760.69;;;25.44;59.32
74268;BME280;62638;51.362;12.472;2022-08-24T09:03:05;100757.81;;;24.96;58.32
74268;BME280;62638;51.362;12.472;2022-08-24T09:08:39;100749.16;;;25.72;56.09
74268;BME280;62638;51.362;12.472;2022-08-24T09:14:34;100752.41;;;25.99;53.79
74268;BME280;62638;51.362;12.472;2022-08-24T09:17:32;100753.88;;;25.83;55.27
74268;BME280;62638;51.362;12.472;2022-08-24T09:20:41;100747.34;;;26.55;51.15
74268;BME280;62638;51.362;12.472;2022-08-24T09:23:21;100758.38;;;26.79;50.91
74268;BME280;62638;51.362;12.472;2022-08-24T09:28:33;100750.13;;;25.96;53.74
74268;BME280;62638;51.362;12.472;2022-08-24T09:31:25;100745.91;;;26.53;54.67
74268;BME280;62638;51.362;12.472;2022-08-24T09:37:03;100738.94;;;27.78;48.05
74268;BME280;62638;51.362;12.472;2022-08-24T09:43:02;100739.22;;;27.42;48.44
74268;BME280;62638;51.362;12.472;2022-08-24T09:54:12;100736.63;;;27.24;46.09
74268;BME280;62638;51.362;12.472;2022-08-24T10:08:17;100740.22;;;25.95;49.92
74268;BME280;62638;51.362;12.472;2022-08-24T10:13:45;100734.31;;;26.51;49.56
74268;BME280;62638;51.362;12.472;2022-08-24T10:19:18;100721.69;;;25.90;49.71
74268;BME280;62638;51.362;12.472;2022-08-24T10:30:07;100707.97;;;27.88;45.61
74268;BME280;62638;51.362;12.472;2022-08-24T10:33:02;100706.66;;;27.62;45.10
74268;BME280;62638;51.362;12.472;2022-08-24T10:35:37;100709.00;;;28.10;43.79
74268;BME280;62638;51.362;12.472;2022-08-24T10:41:54;100698.72;;;27.66;45.60
74268;BME280;62638;51.362;12.472;2022-08-24T10:47:28;100706.25;;;27.70;46.71
74268;BME280;62638;51.362;12.472;2022-08-24T10:55:31;100702.47;;;27.88;44.88
74268;BME280;62638;51.362;12.472;2022-08-24T11:01:13;100693.63;;;27.58;44.83
74268;BME280;62638;51.362;12.472;2022-08-24T11:03:54;100700.06;;;28.20;42.83
74268;BME280;62638;51.362;12.472;2022-08-24T11:06:22;100702.28;;;28.06;43.47
74268;BME280;62638;51.362;12.472;2022-08-24T11:09:01;100697.09;;;28.55;43.05
74268;BME280;62638;51.362;12.472;2022-08-24T11:11:38;100705.72;;;28.13;43.60
74268;BME280;62638;51.362;12.472;2022-08-24T11:14:08;100706.84;;;28.29;42.25
74268;BME280;62638;51.362;12.472;2022-08-24T11:16:43;100704.75;;;27.91;43.61
74268;BME280;62638;51.362;12.472;2022-08-24T11:19:28;100704.78;;;27.51;45.73
74268;BME280;62638;51.362;12.472;2022-08-24T11:21:57;100701.09;;;28.47;42.58
74268;BME280;62638;51.362;12.472;2022-08-24T11:24:39;100705.19;;;28.95;41.47
74268;BME280;62638;51.362;12.472;2022-08-24T11:35:15;100703.81;;;28.14;42.63
74268;BME280;62638;51.362;12.472;2022-08-24T11:37:41;100705.03;;;28.34;43.86
74268;BME280;62638;51.362;12.472;2022-08-24T11:40:08;100700.41;;;28.40;42.56
74268;BME280;62638;51.362;12.472;2022-08-24T11:45:15;100696.53;;;29.68;38.94
74268;BME280;62638;51.362;12.472;2022-08-24T12:01:07;100694.66;;;29.52;38.96
74268;BME280;62638;51.362;12.472;2022-08-24T12:03:41;100699.16;;;30.38;38.71
74268;BME280;62638;51.362;12.472;2022-08-24T12:08:56;100694.31;;;30.18;36.84
74268;BME280;62638;51.362;12.472;2022-08-24T12:11:44;100695.88;;;31.10;37.81
74268;BME280;62638;51.362;12.472;2022-08-24T12:19:34;100685.16;;;29.21;41.77
74268;BME280;62638;51.362;12.472;2022-08-24T12:22:04;100683.88;;;29.50;42.17
74268;BME280;62638;51.362;12.472;2022-08-24T12:24:34;100685.72;;;28.68;42.83
74268;BME280;62638;51.362;12.472;2022-08-24T12:27:09;100689.50;;;27.72;44.46
74268;BME280;62638;51.362;12.472;2022-08-24T12:30:13;100689.28;;;26.63;46.67
74268;BME280;62638;51.362;12.472;2022-08-24T12:35:29;100677.84;;;26.13;48.60
74268;BME280;62638;51.362;12.472;2022-08-24T12:38:06;100681.28;;;25.97;49.30
74268;BME280;62638;51.362;12.472;2022-08-24T12:40:47;100680.28;;;26.33;47.49
74268;BME280;62638;51.362;12.472;2022-08-24T12:43:27;100676.00;;;26.37;47.68
74268;BME280;62638;51.362;12.472;2022-08-24T12:45:55;100682.25;;;26.91;46.54
74268;BME280;62638;51.362;12.472;2022-08-24T12:48:56;100672.69;;;27.85;44.51
74268;BME280;62638;51.362;12.472;2022-08-24T12:57:37;100665.50;;;28.62;43.12
74268;BME280;62638;51.362;12.472;2022-08-24T13:00:20;100673.78;;;28.12;43.44
74268;BME280;62638;51.362;12.472;2022-08-24T13:02:55;100669.94;;;28.80;41.80
74268;BME280;62638;51.362;12.472;2022-08-24T13:05:22;100665.06;;;28.87;41.44
74268;BME280;62638;51.362;12.472;2022-08-24T13:07:49;100672.09;;;28.45;43.67
74268;BME280;62638;51.362;12.472;2022-08-24T13:10:42;100664.09;;;28.60;42.66
74268;BME280;62638;51.362;12.472;2022-08-24T13:13:13;100668.38;;;29.06;41.47
74268;BME280;62638;51.362;12.472;2022-08-24T13:41:15;100665.19;;;28.75;42.75
74268;BME280;62638;51.362;12.472;2022-08-24T13:49:20;100650.28;;;29.15;38.78
74268;BME280;62638;51.362;12.472;2022-08-24T13:57:37;100646.75;;;29.63;40.84
74268;BME280;62638;51.362;12.472;2022-08-24T14:03:18;100647.22;;;30.08;38.66
74268;BME280;62638;51.362;12.472;2022-08-24T14:06:28;100650.00;;;30.77;37.85
74268;BME280;62638;51.362;12.472;2022-08-24T14:09:16;100649.56;;;28.64;40.50
74268;BME280;62638;51.362;12.472;2022-08-24T14:17:26;100644.44;;;28.90;40.88
74268;BME280;62638;51.362;12.472;2022-08-24T14:20:23;100649.38;;;29.09;41.99
74268;BME280;62638;51.362;12.472;2022-08-24T14:25:45;100645.69;;;27.70;43.58
74268;BME280;62638;51.362;12.472;2022-08-24T14:28:41;100636.53;;;27.25;44.80
74268;BME280;62638;51.362;12.472;2022-08-24T14:36:40;100631.03;;;29.20;41.78
74268;BME280;62638;51.362;12.472;2022-08-24T14:42:12;100626.34;;;29.64;39.14
74268;BME280;62638;51.362;12.472;2022-08-24T14:50:10;100623.28;;;30.19;37.79
74268;BME280;62638;51.362;12.472;2022-08-24T14:52:50;100621.47;;;30.35;37.50
74268;BME280;62638;51.362;12.472;2022-08-24T14:55:35;100632.19;;;30.26;39.29
74268;BME280;62638;51.362;12.472;2022-08-24T14:58:05;100621.69;;;29.21;39.32
74268;BME280;62638;51.362;12.472;2022-08-24T15:01:02;100629.22;;;29.09;41.46
74268;BME280;62638;51.362;12.472;2022-08-24T15:06:24;100623.22;;;29.55;41.12
74268;BME280;62638;51.362;12.472;2022-08-24T15:08:51;100615.59;;;30.26;39.25
74268;BME280;62638;51.362;12.472;2022-08-24T15:11:21;100612.72;;;30.11;39.06
74268;BME280;62638;51.362;12.472;2022-08-24T15:14:10;100616.72;;;29.45;40.20
74268;BME280;62638;51.362;12.472;2022-08-24T15:19:07;100615.66;;;29.72;38.68
74268;BME280;62638;51.362;12.472;2022-08-24T15:29:59;100600.19;;;29.71;38.48
74268;BME280;62638;51.362;12.472;2022-08-24T15:32:40;100602.59;;;29.90;38.45
74268;BME280;62638;51.362;12.472;2022-08-24T15:35:21;100602.94;;;29.71;38.87
74268;BME280;62638;51.362;12.472;2022-08-24T15:37:46;100602.88;;;29.66;38.59
74268;BME280;62638;51.362;12.472;2022-08-24T15:40:29;100595.47;;;29.99;38.11
74268;BME280;62638;51.362;12.472;2022-08-24T15:43:01;100593.94;;;29.11;39.15
74268;BME280;62638;51.362;12.472;2022-08-24T15:45:29;100599.59;;;29.21;39.13
74268;BME280;62638;51.362;12.472;2022-08-24T15:47:54;100593.38;;;29.30;39.19
74268;BME280;62638;51.362;12.472;2022-08-24T15:50:31;100593.31;;;28.82;39.49
74268;BME280;62638;51.362;12.472;2022-08-24T15:53:05;100592.72;;;28.25;40.69
74268;BME280;62638;51.362;12.472;2022-08-24T15:55:46;100593.25;;;28.77;40.00
74268;BME280;62638;51.362;12.472;2022-08-24T15:58:31;100597.31;;;28.74;40.70
74268;BME280;62638;51.362;12.472;2022-08-24T16:03:56;100594.94;;;28.45;40.88
74268;BME280;62638;51.362;12.472;2022-08-24T16:11:37;100592.34;;;27.31;44.08
74268;BME280;62638;51.362;12.472;2022-08-24T16:14:09;100597.16;;;27.24;45.09
74268;BME280;62638;51.362;12.472;2022-08-24T16:16:38;100591.22;;;27.16;44.45